Time;durP1;ratioP1;P1;durP2;ratioP2;P2;SDS_P1;SDS_P2;PMS_P1;PMS_P2;Temp;Humidity;BMP_temperature;BMP_pressure;BME280_temperature;BME280_humidity;BME280_pressure;Samples;Min_cycle;Max_cycle;Signal;HPM_P1;HPM_P2
2022/09/21 00:01:22;;;;;;;3.00;2.42;;;;;;;;;;5003492;28;20081;-69
2022/09/21 00:03:55;;;;;;;6.38;2.80;;;;;;;;;;4985108;28;20046;-69
2022/09/21 00:06:22;;;;;;;6.18;2.65;;;;;;;;;;5002581;28;20050;-69
2022/09/21 00:08:48;;;;;;;5.05;2.85;;;;;;;;;;5002895;28;20053;-70
2022/09/21 00:11:16;;;;;;;4.43;2.47;;;;;;;;;;5002989;28;20046;-69
2022/09/21 00:13:45;;;;;;;5.68;2.42;;;;;;;;;;5002333;28;20053;-70
2022/09/21 00:16:11;;;;;;;4.85;2.40;;;;;;;;;;5003375;28;20053;-69
2022/09/21 00:18:37;;;;;;;4.30;2.47;;;;;;;;;;5000983;28;20081;-69
2022/09/21 00:21:08;;;;;;;1.98;1.85;;;;;;;;;;5002725;28;20100;-69
2022/09/21 00:23:34;;;;;;;3.42;2.33;;;;;;;;;;5002023;28;20046;-69
2022/09/21 00:26:08;;;;;;;4.22;2.20;;;;;;;;;;5002886;28;20054;-69
2022/09/21 00:28:34;;;;;;;4.63;2.40;;;;;;;;;;5001707;28;20053;-69
2022/09/21 00:31:04;;;;;;;4.47;2.20;;;;;;;;;;5002566;28;20123;-70
2022/09/21 00:33:29;;;;;;;5.28;2.58;;;;;;;;;;4983990;28;20045;-69
2022/09/21 00:35:55;;;;;;;2.40;2.20;;;;;;;;;;5002630;28;20048;-70
2022/09/21 00:38:20;;;;;;;6.57;2.60;;;;;;;;;;5002609;28;20133;-69
2022/09/21 00:40:45;;;;;;;5.18;2.65;;;;;;;;;;5001549;28;20053;-69
2022/09/21 00:43:13;;;;;;;5.45;2.67;;;;;;;;;;5002405;28;20042;-69
2022/09/21 00:45:40;;;;;;;4.68;2.50;;;;;;;;;;5001852;28;20050;-69
2022/09/21 00:48:05;;;;;;;7.88;2.60;;;;;;;;;;5002059;28;21091;-69
2022/09/21 00:50:31;;;;;;;6.70;2.50;;;;;;;;;;5001216;28;20042;-70
2022/09/21 00:52:57;;;;;;;2.45;2.25;;;;;;;;;;5001860;28;20052;-69
2022/09/21 00:55:36;;;;;;;4.40;2.20;;;;;;;;;;5001719;28;20093;-70
2022/09/21 00:58:08;;;;;;;2.40;2.17;;;;;;;;;;5002237;28;20128;-69
2022/09/21 01:00:35;;;;;;;3.90;2.30;;;;;;;;;;5002190;28;20120;-70
2022/09/21 01:03:00;;;;;;;3.40;2.25;;;;;;;;;;4995773;28;20228;-69
2022/09/21 01:05:27;;;;;;;5.93;2.20;;;;;;;;;;5001243;28;20607;-70
2022/09/21 01:07:55;;;;;;;5.05;2.60;;;;;;;;;;5001630;28;20422;-69
2022/09/21 01:10:20;;;;;;;6.85;2.50;;;;;;;;;;5001762;28;20068;-69
2022/09/21 01:12:52;;;;;;;4.65;2.55;;;;;;;;;;5000998;28;20053;-69
2022/09/21 01:15:22;;;;;;;;;;;;;;;;;;5002457;28;20041;-69
2022/09/21 01:18:03;;;;;;;4.57;2.40;;;;;;;;;;5001279;28;20825;-69
2022/09/21 01:21:01;;;;;;;7.32;2.70;;;;;;;;;;5001878;28;20514;-70
2022/09/21 01:23:45;;;;;;;5.53;2.70;;;;;;;;;;4999633;28;20521;-69
2022/09/21 01:26:30;;;;;;;3.50;2.72;;;;;;;;;;4999499;28;20062;-69
2022/09/21 01:29:19;;;;;;;5.55;2.80;;;;;;;;;;4999398;28;20049;-69
2022/09/21 01:31:48;;;;;;;4.65;2.83;;;;;;;;;;4999509;28;20387;-69
2022/09/21 01:34:25;;;;;;;9.48;3.03;;;;;;;;;;4998659;28;20049;-69
2022/09/21 01:36:54;;;;;;;6.00;3.08;;;;;;;;;;5001451;28;20085;-69
2022/09/21 01:39:22;;;;;;;3.92;2.50;;;;;;;;;;5001139;28;20394;-69
2022/09/21 01:41:50;;;;;;;2.85;2.42;;;;;;;;;;5001555;28;20049;-68
2022/09/21 01:44:22;;;;;;;3.38;2.33;;;;;;;;;;5001268;28;20061;-69
2022/09/21 01:46:48;;;;;;;6.53;2.85;;;;;;;;;;5000838;28;20410;-70
2022/09/21 01:49:19;;;;;;;7.55;2.78;;;;;;;;;;5001035;28;20131;-70
2022/09/21 01:51:51;;;;;;;7.35;2.13;;;;;;;;;;5000913;28;20137;-70
2022/09/21 01:54:29;;;;;;;2.70;2.35;;;;;;;;;;5000958;28;20061;-70
2022/09/21 01:57:01;;;;;;;3.47;2.28;;;;;;;;;;5000303;28;20041;-70
2022/09/21 01:59:39;;;;;;;6.38;2.47;;;;;;;;;;4998313;28;20057;-70
2022/09/21 02:02:17;;;;;;;4.82;2.67;;;;;;;;;;5000854;28;20673;-70
2022/09/21 02:04:43;;;;;;;5.70;2.20;;;;;;;;;;5000798;28;20510;-70
2022/09/21 02:07:09;;;;;;;5.47;2.60;;;;;;;;;;5000542;28;20050;-70
2022/09/21 02:09:36;;;;;;;2.38;2.15;;;;;;;;;;4999735;28;20046;-70
2022/09/21 02:12:02;;;;;;;2.33;2.13;;;;;;;;;;5000727;28;20049;-70
2022/09/21 02:14:31;;;;;;;6.75;2.58;;;;;;;;;;5000834;28;20048;-70
2022/09/21 02:17:27;;;;;;;5.05;2.53;;;;;;;;;;5001173;28;20073;-70
2022/09/21 02:20:18;;;;;;;3.22;2.33;;;;;;;;;;4981256;28;20072;-70
2022/09/21 02:23:02;;;;;;;3.20;2.40;;;;;;;;;;5000848;28;20053;-70
2022/09/21 02:25:48;;;;;;;8.63;2.70;;;;;;;;;;5000155;28;20056;-70
2022/09/21 02:28:37;;;;;;;4.93;2.90;;;;;;;;;;5000770;28;20052;-70
2022/09/21 02:31:14;;;;;;;5.93;2.90;;;;;;;;;;4999995;28;20041;-70
2022/09/21 02:33:58;;;;;;;5.93;2.80;;;;;;;;;;4999867;28;20068;-70
2022/09/21 02:36:37;;;;;;;4.13;2.80;;;;;;;;;;5000591;28;20103;-70
2022/09/21 02:39:10;;;;;;;4.82;3.13;;;;;;;;;;5000627;28;20057;-70
2022/09/21 02:41:47;;;;;;;6.90;3.00;;;;;;;;;;5000263;28;20107;-70
2022/09/21 02:44:34;;;;;;;5.55;3.00;;;;;;;;;;5006648;28;20041;-70
2022/09/21 02:47:12;;;;;;;7.47;2.88;;;;;;;;;;5006859;28;20403;-70
2022/09/21 02:49:43;;;;;;;6.22;2.65;;;;;;;;;;5006577;28;20084;-70
2022/09/21 02:52:14;;;;;;;4.45;2.80;;;;;;;;;;4988541;28;20110;-70
2022/09/21 02:54:43;;;;;;;4.30;3.00;;;;;;;;;;5006743;28;20054;-69
2022/09/21 02:57:10;;;;;;;5.70;3.20;;;;;;;;;;5007007;28;20606;-70
2022/09/21 02:59:35;;;;;;;5.25;2.60;;;;;;;;;;5006299;28;20045;-70
2022/09/21 03:02:01;;;;;;;7.75;2.80;;;;;;;;;;5004792;28;20052;-70
2022/09/21 03:04:27;;;;;;;2.67;2.47;;;;;;;;;;5004883;28;20049;-69
2022/09/21 03:06:52;;;;;;;4.60;2.60;;;;;;;;;;5006599;28;20819;-69
2022/09/21 03:09:23;;;;;;;5.32;2.63;;;;;;;;;;5006957;28;20038;-70
2022/09/21 03:11:48;;;;;;;5.28;2.80;;;;;;;;;;5006453;28;20085;-70
2022/09/21 03:14:14;;;;;;;4.65;2.90;;;;;;;;;;5005708;28;20080;-70
2022/09/21 03:16:40;;;;;;;4.55;2.67;;;;;;;;;;5007341;28;20077;-69
2022/09/21 03:19:05;;;;;;;3.55;2.30;;;;;;;;;;5011330;28;20090;-69
2022/09/21 03:21:31;;;;;;;8.30;2.55;;;;;;;;;;5010273;28;20768;-69
2022/09/21 03:23:56;;;;;;;4.40;2.47;;;;;;;;;;5006645;28;20054;-70
2022/09/21 03:26:22;;;;;;;3.15;2.50;;;;;;;;;;4988871;28;20104;-70
2022/09/21 03:28:53;;;;;;;2.90;2.30;;;;;;;;;;5006297;28;20055;-70
2022/09/21 03:31:19;;;;;;;4.60;2.63;;;;;;;;;;5006683;28;20116;-69
2022/09/21 03:33:44;;;;;;;3.92;2.42;;;;;;;;;;5006120;28;20878;-69
2022/09/21 03:36:10;;;;;;;2.45;2.22;;;;;;;;;;5005935;28;20144;-69
2022/09/21 03:38:36;;;;;;;6.28;2.53;;;;;;;;;;5006300;28;20430;-69
2022/09/21 03:41:02;;;;;;;5.47;2.58;;;;;;;;;;5006627;28;20175;-69
2022/09/21 03:43:28;;;;;;;5.38;3.25;;;;;;;;;;5004419;28;20046;-70
2022/09/21 03:45:53;;;;;;;6.72;2.90;;;;;;;;;;5006729;28;20516;-69
2022/09/21 03:48:20;;;;;;;9.50;3.65;;;;;;;;;;5005676;28;21127;-69
2022/09/21 03:50:45;;;;;;;4.93;3.72;;;;;;;;;;5006156;28;20566;-69
2022/09/21 03:53:11;;;;;;;7.78;3.47;;;;;;;;;;5004679;28;20071;-69
2022/09/21 03:55:37;;;;;;;7.00;3.22;;;;;;;;;;5002413;28;20038;-69
2022/09/21 03:58:02;;;;;;;6.70;3.45;;;;;;;;;;5002532;28;20057;-69
2022/09/21 04:00:28;;;;;;;7.65;4.00;;;;;;;;;;5000554;28;20050;-69
2022/09/21 04:02:54;;;;;;;8.35;3.90;;;;;;;;;;5003230;28;20053;-69
2022/09/21 04:05:19;;;;;;;10.05;4.43;;;;;;;;;;5003075;28;20064;-69
2022/09/21 04:07:45;;;;;;;5.38;3.50;;;;;;;;;;5002876;28;20058;-69
2022/09/21 04:10:13;;;;;;;13.20;3.65;;;;;;;;;;4999188;28;20053;-69
2022/09/21 04:12:41;;;;;;;8.93;3.50;;;;;;;;;;4984972;28;20053;-69
2022/09/21 04:15:08;;;;;;;6.57;3.75;;;;;;;;;;5003077;28;20046;-69
2022/09/21 04:17:33;;;;;;;7.25;3.17;;;;;;;;;;5002509;28;20483;-69
2022/09/21 04:20:00;;;;;;;5.20;3.15;;;;;;;;;;5001299;28;20046;-69
2022/09/21 04:22:25;;;;;;;6.82;3.08;;;;;;;;;;5001890;28;20042;-69
2022/09/21 04:24:51;;;;;;;4.28;3.50;;;;;;;;;;5000328;28;20406;-69
2022/09/21 04:27:17;;;;;;;10.77;5.25;;;;;;;;;;5002748;28;20137;-69
2022/09/21 04:29:43;;;;;;;13.13;4.10;;;;;;;;;;5001788;28;20052;-69
2022/09/21 04:32:09;;;;;;;7.55;4.10;;;;;;;;;;5001778;28;20545;-69
2022/09/21 04:34:36;;;;;;;8.73;4.97;;;;;;;;;;5002593;28;20406;-69
2022/09/21 04:37:01;;;;;;;13.77;5.75;;;;;;;;;;5000441;28;20056;-69
2022/09/21 04:39:27;;;;;;;7.72;5.93;;;;;;;;;;5000956;28;20045;-69
2022/09/21 04:41:52;;;;;;;6.35;4.00;;;;;;;;;;4984157;28;20052;-69
2022/09/21 04:44:18;;;;;;;4.72;4.03;;;;;;;;;;5002133;28;20821;-69
2022/09/21 04:46:44;;;;;;;7.38;4.10;;;;;;;;;;5002205;28;20926;-69
2022/09/21 04:49:09;;;;;;;7.63;4.25;;;;;;;;;;5003476;28;20624;-70
2022/09/21 04:51:35;;;;;;;7.30;3.60;;;;;;;;;;5002177;28;20057;-69
2022/09/21 04:54:01;;;;;;;4.75;3.60;;;;;;;;;;5002466;28;20136;-69
2022/09/21 04:56:26;;;;;;;6.10;3.90;;;;;;;;;;5003529;28;20196;-70
2022/09/21 04:58:52;;;;;;;8.38;4.07;;;;;;;;;;4985404;28;20054;-69
2022/09/21 05:01:17;;;;;;;6.78;3.55;;;;;;;;;;5002917;28;20415;-69
2022/09/21 05:03:43;;;;;;;7.07;3.58;;;;;;;;;;5001233;28;20045;-69
2022/09/21 05:06:10;;;;;;;5.45;3.50;;;;;;;;;;5001775;28;20053;-69
2022/09/21 05:11:19;;;;;;;5.05;3.28;;;;;;;;;;5002138;28;20108;-73
2022/09/21 05:13:46;;;;;;;8.45;3.80;;;;;;;;;;5002039;28;20054;-70
2022/09/21 05:16:12;;;;;;;3.95;3.47;;;;;;;;;;5000835;28;20056;-69
2022/09/21 05:18:37;;;;;;;5.13;3.38;;;;;;;;;;4998875;28;20057;-69
2022/09/21 05:21:05;;;;;;;11.77;3.70;;;;;;;;;;5001826;28;20038;-68
2022/09/21 05:23:30;;;;;;;18.02;3.83;;;;;;;;;;5001088;28;20330;-68
2022/09/21 05:25:57;;;;;;;10.32;3.88;;;;;;;;;;5001020;28;20469;-70
2022/09/21 05:28:23;;;;;;;8.73;3.80;;;;;;;;;;5001790;28;20056;-70
2022/09/21 05:31:21;;;;;;;5.15;3.63;;;;;;;;;;5001435;28;20042;-70
2022/09/21 05:34:02;;;;;;;5.15;3.22;;;;;;;;;;5000635;28;20558;-70
2022/09/21 05:36:46;;;;;;;11.05;4.28;;;;;;;;;;4997214;28;20057;-70
2022/09/21 05:39:12;;;;;;;6.65;4.05;;;;;;;;;;5001292;28;20521;-70
2022/09/21 05:41:38;;;;;;;9.45;4.40;;;;;;;;;;5001080;28;20628;-70
2022/09/21 05:44:04;;;;;;;7.07;4.18;;;;;;;;;;5001245;28;20060;-70
2022/09/21 05:46:41;;;;;;;5.10;3.20;;;;;;;;;;5000917;28;20053;-70
2022/09/21 05:49:41;;;;;;;8.38;2.72;;;;;;;;;;5000500;28;20052;-71
2022/09/21 05:52:26;;;;;;;5.72;3.13;;;;;;;;;;4951314;28;20038;-70
2022/09/21 05:55:26;;;;;;;3.80;2.65;;;;;;;;;;4999824;28;20592;-71
2022/09/21 05:58:27;;;;;;;5.00;3.20;;;;;;;;;;4999793;28;20140;-71
2022/09/21 06:01:13;;;;;;;3.38;2.63;;;;;;;;;;5001034;28;20140;-71
2022/09/21 06:03:40;;;;;;;5.03;2.70;;;;;;;;;;5000494;28;20490;-71
2022/09/21 06:06:07;;;;;;;3.03;2.70;;;;;;;;;;5000940;28;20140;-71
2022/09/21 06:08:33;;;;;;;5.30;3.45;;;;;;;;;;5001420;28;20042;-71
2022/09/21 06:10:59;;;;;;;4.45;2.40;;;;;;;;;;5000116;28;20073;-70
2022/09/21 06:13:25;;;;;;;2.75;2.35;;;;;;;;;;5000518;28;20092;-71
2022/09/21 06:15:51;;;;;;;3.38;2.63;;;;;;;;;;5001249;28;20148;-71
2022/09/21 06:18:16;;;;;;;6.68;3.60;;;;;;;;;;5000389;28;20056;-71
2022/09/21 06:20:42;;;;;;;6.57;3.85;;;;;;;;;;5000120;28;20107;-71
2022/09/21 06:23:09;;;;;;;6.97;3.88;;;;;;;;;;4983070;28;20049;-70
2022/09/21 06:25:35;;;;;;;10.88;3.42;;;;;;;;;;4982393;28;20050;-71
2022/09/21 06:28:09;;;;;;;7.88;2.67;;;;;;;;;;4999832;28;20069;-70
2022/09/21 06:30:35;;;;;;;3.25;2.25;;;;;;;;;;5000192;28;20050;-71
2022/09/21 06:33:02;;;;;;;4.82;2.40;;;;;;;;;;4999176;28;20103;-71
2022/09/21 06:35:28;;;;;;;3.97;2.05;;;;;;;;;;4999974;28;20042;-71
2022/09/21 06:38:05;;;;;;;3.90;1.90;;;;;;;;;;4997011;28;20632;-71
2022/09/21 06:40:33;;;;;;;5.13;2.15;;;;;;;;;;4998320;28;20056;-71
2022/09/21 06:43:00;;;;;;;5.10;2.47;;;;;;;;;;4996937;28;20041;-71
2022/09/21 06:45:26;;;;;;;5.47;2.58;;;;;;;;;;4997963;28;20042;-71
2022/09/21 06:47:52;;;;;;;3.35;2.15;;;;;;;;;;4998734;28;20077;-71
2022/09/21 06:50:18;;;;;;;2.38;1.85;;;;;;;;;;4998866;28;20053;-71
2022/09/21 06:52:43;;;;;;;7.45;2.17;;;;;;;;;;4999463;28;20682;-71
2022/09/21 06:55:09;;;;;;;3.22;2.20;;;;;;;;;;4997416;28;20100;-72
2022/09/21 06:57:37;;;;;;;2.58;1.80;;;;;;;;;;5001686;28;20056;-70
2022/09/21 07:00:04;;;;;;;3.53;1.73;;;;;;;;;;5000532;28;20685;-69
2022/09/21 07:02:29;;;;;;;2.03;1.83;;;;;;;;;;4999485;28;20050;-69
2022/09/21 07:04:55;;;;;;;2.58;1.70;;;;;;;;;;4980402;28;20049;-70
2022/09/21 07:07:20;;;;;;;3.13;1.50;;;;;;;;;;4999151;28;20046;-69
2022/09/21 07:09:46;;;;;;;2.83;2.08;;;;;;;;;;4998277;28;20105;-71
2022/09/21 07:12:12;;;;;;;2.65;1.88;;;;;;;;;;4999582;28;20847;-70
2022/09/21 07:14:38;;;;;;;3.00;2.03;;;;;;;;;;4998931;28;20107;-70
2022/09/21 07:17:04;;;;;;;2.25;1.63;;;;;;;;;;4997890;28;20053;-69
2022/09/21 07:19:29;;;;;;;3.13;1.75;;;;;;;;;;4998648;28;20084;-70
2022/09/21 07:21:55;;;;;;;2.28;1.67;;;;;;;;;;4998187;28;20073;-69
2022/09/21 07:24:20;;;;;;;2.00;1.52;;;;;;;;;;5000753;28;20068;-70
2022/09/21 07:26:46;;;;;;;2.80;1.70;;;;;;;;;;4998499;28;20049;-69
2022/09/21 07:29:11;;;;;;;4.05;2.20;;;;;;;;;;5001519;28;20128;-69
2022/09/21 07:31:37;;;;;;;4.72;1.90;;;;;;;;;;5002268;28;20052;-70
2022/09/21 07:34:03;;;;;;;3.05;1.83;;;;;;;;;;5002476;28;20113;-70
2022/09/21 07:36:28;;;;;;;3.70;1.60;;;;;;;;;;5001383;28;20049;-71
2022/09/21 07:38:53;;;;;;;1.92;1.60;;;;;;;;;;5000442;28;20438;-70
2022/09/21 07:41:19;;;;;;;3.03;1.58;;;;;;;;;;5001930;28;20139;-70
2022/09/21 07:43:44;;;;;;;2.10;1.85;;;;;;;;;;5001375;28;20072;-70
2022/09/21 07:46:13;;;;;;;4.70;1.95;;;;;;;;;;5003216;28;20065;-70
2022/09/21 07:48:38;;;;;;;3.17;2.10;;;;;;;;;;5000749;28;20072;-70
2022/09/21 07:51:06;;;;;;;2.42;1.88;;;;;;;;;;5003328;28;21067;-70
2022/09/21 07:53:33;;;;;;;2.47;1.67;;;;;;;;;;5002630;28;20445;-70
2022/09/21 07:56:03;;;;;;;2.30;1.85;;;;;;;;;;5003487;28;20045;-70
2022/09/21 08:01:13;;;;;;;3.67;1.83;;;;;;;;;;5002446;28;20046;-68
2022/09/21 08:03:38;;;;;;;2.80;2.10;;;;;;;;;;5002428;28;20060;-68
2022/09/21 08:06:04;;;;;;;3.10;1.80;;;;;;;;;;5003339;28;20127;-68
2022/09/21 08:08:29;;;;;;;2.35;1.70;;;;;;;;;;5003291;28;20045;-69
2022/09/21 08:11:00;;;;;;;1.67;1.20;;;;;;;;;;5002238;28;20084;-69
2022/09/21 08:13:26;;;;;;;1.85;1.33;;;;;;;;;;5002325;28;20041;-70
2022/09/21 08:16:01;;;;;;;7.22;1.70;;;;;;;;;;5003174;28;20069;-70
2022/09/21 08:18:27;;;;;;;4.00;1.52;;;;;;;;;;5002842;28;20096;-69
2022/09/21 08:21:00;;;;;;;3.47;1.73;;;;;;;;;;5003270;28;20478;-69
2022/09/21 08:23:27;;;;;;;3.38;1.80;;;;;;;;;;5001909;28;20061;-69
2022/09/21 08:26:00;;;;;;;2.22;1.52;;;;;;;;;;5003169;28;20056;-70
2022/09/21 08:28:27;;;;;;;2.50;1.52;;;;;;;;;;5003162;28;20143;-70
2022/09/21 08:30:53;;;;;;;2.72;1.60;;;;;;;;;;5003052;28;20073;-70
2022/09/21 08:33:18;;;;;;;2.60;1.90;;;;;;;;;;5002353;28;20068;-69
2022/09/21 08:35:51;;;;;;;1.67;1.58;;;;;;;;;;5002291;28;20046;-70
2022/09/21 08:38:16;;;;;;;3.15;1.20;;;;;;;;;;5003014;28;20050;-70
2022/09/21 08:40:42;;;;;;;2.03;1.55;;;;;;;;;;5002413;28;20049;-70
2022/09/21 08:43:14;;;;;;;3.15;1.40;;;;;;;;;;4984644;28;20053;-70
2022/09/21 08:45:43;;;;;;;2.65;1.70;;;;;;;;;;4993824;28;20041;-70
2022/09/21 08:48:30;;;;;;;1.92;1.30;;;;;;;;;;5003166;28;20060;-70
2022/09/21 08:50:59;;;;;;;1.63;1.40;;;;;;;;;;4985034;28;20052;-70
2022/09/21 08:53:31;;;;;;;1.92;1.40;;;;;;;;;;4984775;28;20068;-70
2022/09/21 08:55:57;;;;;;;2.60;1.33;;;;;;;;;;4983924;28;20065;-70
2022/09/21 08:58:23;;;;;;;1.23;1.10;;;;;;;;;;5002845;28;20054;-70
2022/09/21 09:01:16;;;;;;;1.00;0.90;;;;;;;;;;5002623;28;20050;-70
2022/09/21 09:04:07;;;;;;;2.50;1.00;;;;;;;;;;5001834;28;20053;-70
2022/09/21 09:06:39;;;;;;;2.65;1.40;;;;;;;;;;5001279;28;20048;-69
2022/09/21 09:09:33;;;;;;;2.47;0.93;;;;;;;;;;5001640;28;20123;-69
2022/09/21 09:12:17;;;;;;;1.90;1.15;;;;;;;;;;4991212;28;20094;-70
2022/09/21 09:15:01;;;;;;;1.65;1.00;;;;;;;;;;5001763;28;20046;-70
2022/09/21 09:17:29;;;;;;;1.65;0.93;;;;;;;;;;5001166;28;20053;-70
2022/09/21 09:19:55;;;;;;;1.92;1.33;;;;;;;;;;5001938;28;20142;-70
2022/09/21 09:22:53;;;;;;;1.27;1.00;;;;;;;;;;5001988;28;20100;-70
2022/09/21 09:25:21;;;;;;;1.77;1.10;;;;;;;;;;5001707;28;20487;-70
2022/09/21 09:27:51;;;;;;;2.33;1.48;;;;;;;;;;5000701;28;20046;-70
2022/09/21 09:30:24;;;;;;;2.90;1.42;;;;;;;;;;5002036;28;20124;-70
2022/09/21 09:33:07;;;;;;;2.47;1.20;;;;;;;;;;4999148;28;20041;-70
2022/09/21 09:35:46;;;;;;;1.92;1.20;;;;;;;;;;4999713;28;20080;-70
2022/09/21 09:38:36;;;;;;;1.23;1.13;;;;;;;;;;4999615;28;20137;-70
2022/09/21 09:41:16;;;;;;;1.02;0.95;;;;;;;;;;5000240;28;20046;-70
2022/09/21 09:44:19;;;;;;;1.23;1.00;;;;;;;;;;4999690;28;20060;-70
2022/09/21 09:47:06;;;;;;;2.70;0.95;;;;;;;;;;5000683;28;20038;-70
2022/09/21 09:49:37;;;;;;;1.67;1.00;;;;;;;;;;4999253;28;20081;-70
2022/09/21 09:52:04;;;;;;;1.40;1.10;;;;;;;;;;4999055;28;20054;-69
2022/09/21 09:54:33;;;;;;;2.95;1.10;;;;;;;;;;5000532;28;20057;-70
2022/09/21 09:57:03;;;;;;;1.63;0.80;;;;;;;;;;5000283;28;20089;-70
2022/09/21 09:59:34;;;;;;;2.88;0.77;;;;;;;;;;5000921;28;20058;-70
2022/09/21 10:02:03;;;;;;;0.50;0.47;;;;;;;;;;4999312;28;20069;-70
2022/09/21 10:04:29;;;;;;;2.35;0.98;;;;;;;;;;5000301;28;20042;-70
2022/09/21 10:06:55;;;;;;;2.92;0.85;;;;;;;;;;4999735;28;20103;-70
2022/09/21 10:09:26;;;;;;;0.80;0.70;;;;;;;;;;5000454;28;20161;-70
2022/09/21 10:11:55;;;;;;;1.13;0.80;;;;;;;;;;4997829;28;20108;-71
2022/09/21 10:14:23;;;;;;;0.90;0.80;;;;;;;;;;5000402;28;20048;-70
2022/09/21 10:16:52;;;;;;;1.23;0.82;;;;;;;;;;4999591;28;20134;-70
2022/09/21 10:19:22;;;;;;;1.40;0.60;;;;;;;;;;5000023;28;20054;-70
2022/09/21 10:21:54;;;;;;;2.25;0.80;;;;;;;;;;4999257;28;20579;-70
2022/09/21 10:24:32;;;;;;;0.80;0.70;;;;;;;;;;4999007;28;20042;-70
2022/09/21 10:27:28;;;;;;;1.30;0.60;;;;;;;;;;4999280;28;20498;-70
2022/09/21 10:29:53;;;;;;;1.70;0.57;;;;;;;;;;4970549;28;20161;-70
2022/09/21 10:32:26;;;;;;;1.85;0.68;;;;;;;;;;4999890;28;20132;-70
2022/09/21 10:35:13;;;;;;;1.38;0.65;;;;;;;;;;4997742;28;20049;-70
2022/09/21 10:37:45;;;;;;;0.75;0.50;;;;;;;;;;4999507;28;20074;-70
2022/09/21 10:40:16;;;;;;;;;;;;;;;;;;4992381;28;20502;-70
2022/09/21 10:42:42;;;;;;;1.70;0.70;;;;;;;;;;5001786;28;20008;-69
2022/09/21 10:45:20;;;;;;;1.40;0.50;;;;;;;;;;5000434;28;20454;-70
2022/09/21 10:47:46;;;;;;;1.67;0.80;;;;;;;;;;4983175;28;20147;-70
2022/09/21 10:50:36;;;;;;;0.50;0.50;;;;;;;;;;5000702;28;20073;-70
2022/09/21 10:53:07;;;;;;;1.77;0.70;;;;;;;;;;5001219;28;20487;-70
2022/09/21 10:55:37;;;;;;;0.95;0.65;;;;;;;;;;4981753;28;20064;-70
2022/09/21 10:58:11;;;;;;;0.65;0.60;;;;;;;;;;5000826;28;20105;-70
2022/09/21 11:00:46;;;;;;;1.30;0.60;;;;;;;;;;5000751;28;20129;-70
2022/09/21 11:03:33;;;;;;;1.70;0.73;;;;;;;;;;5001902;28;20045;-70
2022/09/21 11:06:07;;;;;;;1.05;0.60;;;;;;;;;;4990986;28;20077;-70
2022/09/21 11:08:38;;;;;;;0.55;0.55;;;;;;;;;;5004586;28;20157;-70
2022/09/21 11:11:17;;;;;;;0.90;0.50;;;;;;;;;;5008683;28;20578;-70
2022/09/21 11:13:59;;;;;;;1.25;0.60;;;;;;;;;;5008316;28;20049;-70
2022/09/21 11:16:29;;;;;;;0.50;0.50;;;;;;;;;;5005391;28;20046;-70
2022/09/21 11:19:06;;;;;;;0.60;0.60;;;;;;;;;;5003480;28;20061;-70
2022/09/21 11:21:40;;;;;;;1.23;0.90;;;;;;;;;;5003946;28;20099;-70
2022/09/21 11:24:39;;;;;;;3.28;0.65;;;;;;;;;;5004125;28;20410;-71
2022/09/21 11:27:21;;;;;;;1.10;0.70;;;;;;;;;;5003833;28;20415;-70
2022/09/21 11:30:10;;;;;;;1.50;0.80;;;;;;;;;;5001124;28;20414;-70
2022/09/21 11:32:48;;;;;;;2.17;1.08;;;;;;;;;;5004029;28;20050;-70
2022/09/21 11:35:29;;;;;;;0.73;0.70;;;;;;;;;;5003625;28;20077;-70
2022/09/21 11:38:08;;;;;;;1.08;0.80;;;;;;;;;;4969697;28;20093;-70
2022/09/21 11:40:54;;;;;;;0.90;0.70;;;;;;;;;;5002899;28;20046;-70
2022/09/21 11:43:31;;;;;;;1.17;0.60;;;;;;;;;;5003397;28;20049;-71
2022/09/21 11:46:15;;;;;;;1.25;0.50;;;;;;;;;;4969464;28;20046;-70
2022/09/21 11:48:58;;;;;;;1.92;0.80;;;;;;;;;;4986394;28;20045;-71
2022/09/21 11:51:36;;;;;;;1.25;0.70;;;;;;;;;;5002672;28;20084;-71
2022/09/21 11:54:20;;;;;;;1.08;0.98;;;;;;;;;;4985352;28;20053;-71
2022/09/21 11:56:53;;;;;;;2.42;0.82;;;;;;;;;;5002796;28;20430;-71
2022/09/21 11:59:43;;;;;;;2.08;0.77;;;;;;;;;;5000567;28;20057;-71
2022/09/21 12:02:34;;;;;;;0.77;0.50;;;;;;;;;;4986040;28;20111;-70
2022/09/21 12:05:28;;;;;;;0.93;0.70;;;;;;;;;;5003246;28;20045;-70
2022/09/21 12:08:24;;;;;;;0.88;0.60;;;;;;;;;;4999298;28;20107;-70
2022/09/21 12:10:59;;;;;;;1.45;0.80;;;;;;;;;;5000920;28;20037;-71
2022/09/21 12:13:34;;;;;;;1.05;0.88;;;;;;;;;;5001256;28;20046;-71
2022/09/21 12:16:18;;;;;;;1.25;0.90;;;;;;;;;;4997548;28;20080;-71
2022/09/21 12:19:03;;;;;;;4.40;0.77;;;;;;;;;;4999462;28;20054;-70
2022/09/21 12:22:13;;;;;;;1.13;0.70;;;;;;;;;;5000363;28;20060;-71
2022/09/21 12:24:43;;;;;;;1.35;0.88;;;;;;;;;;4899463;29;20581;-71
2022/09/21 12:27:23;;;;;;;1.15;0.88;;;;;;;;;;4986787;28;20076;-71
2022/09/21 12:29:55;;;;;;;0.88;0.70;;;;;;;;;;5000930;28;20064;-71
2022/09/21 12:32:58;;;;;;;2.45;0.70;;;;;;;;;;5002368;28;20064;-71
2022/09/21 12:35:35;;;;;;;1.17;0.60;;;;;;;;;;4998610;28;20598;-71
2022/09/21 12:38:08;;;;;;;1.27;0.68;;;;;;;;;;4951752;28;20088;-71
2022/09/21 12:40:50;;;;;;;1.38;0.70;;;;;;;;;;4995681;28;20076;-70
2022/09/21 12:43:40;;;;;;;0.55;0.52;;;;;;;;;;5000879;28;20494;-71
2022/09/21 12:46:36;;;;;;;1.13;0.70;;;;;;;;;;4980571;28;20054;-71
2022/09/21 12:49:13;;;;;;;2.75;0.70;;;;;;;;;;4981931;28;20045;-72
2022/09/21 12:51:47;;;;;;;1.90;0.60;;;;;;;;;;5000712;28;20095;-70
2022/09/21 12:54:36;;;;;;;0.73;0.73;;;;;;;;;;5000947;28;20147;-71
2022/09/21 12:57:30;;;;;;;1.35;0.75;;;;;;;;;;5000954;28;20486;-71
2022/09/21 13:00:02;;;;;;;1.55;0.70;;;;;;;;;;4993369;28;20074;-71
2022/09/21 13:02:39;;;;;;;2.92;0.75;;;;;;;;;;5002164;28;20057;-70
2022/09/21 13:05:27;;;;;;;1.02;0.70;;;;;;;;;;5001770;28;20054;-70
2022/09/21 13:08:18;;;;;;;0.60;0.55;;;;;;;;;;5000444;28;20053;-71
2022/09/21 13:10:58;;;;;;;0.60;0.57;;;;;;;;;;5001673;28;20106;-71
2022/09/21 13:13:42;;;;;;;2.28;0.47;;;;;;;;;;5000171;28;20133;-70
2022/09/21 13:16:22;;;;;;;0.73;0.47;;;;;;;;;;4983537;28;20506;-71
2022/09/21 13:18:55;;;;;;;1.05;0.50;;;;;;;;;;4999785;28;20083;-70
2022/09/21 13:21:30;;;;;;;2.08;0.70;;;;;;;;;;5002347;28;20049;-71
2022/09/21 13:23:56;;;;;;;1.05;0.50;;;;;;;;;;4967380;28;20049;-71
2022/09/21 13:26:32;;;;;;;2.90;0.85;;;;;;;;;;4999518;28;20045;-71
2022/09/21 13:28:57;;;;;;;0.70;0.57;;;;;;;;;;5002139;28;20085;-71
2022/09/21 13:31:32;;;;;;;0.40;0.40;;;;;;;;;;4998155;28;20069;-71
2022/09/21 13:34:20;;;;;;;1.00;0.60;;;;;;;;;;4980427;28;20711;-71
2022/09/21 13:37:05;;;;;;;2.15;0.60;;;;;;;;;;4999636;28;20041;-70
2022/09/21 13:39:30;;;;;;;1.05;0.60;;;;;;;;;;5000598;28;20057;-71
2022/09/21 13:41:56;;;;;;;0.40;0.40;;;;;;;;;;5000626;28;20052;-70
2022/09/21 13:44:41;;;;;;;0.47;0.40;;;;;;;;;;5001853;28;20597;-70
2022/09/21 13:47:07;;;;;;;1.63;0.40;;;;;;;;;;5001839;28;20430;-70
2022/09/21 13:49:40;;;;;;;1.83;0.70;;;;;;;;;;5000740;28;20096;-71
2022/09/21 13:52:12;;;;;;;0.57;0.43;;;;;;;;;;5000010;28;20132;-71
2022/09/21 13:54:43;;;;;;;0.57;0.55;;;;;;;;;;5001487;28;20053;-71
2022/09/21 13:57:24;;;;;;;0.77;0.40;;;;;;;;;;5001743;28;20426;-71
2022/09/21 14:00:06;;;;;;;0.47;0.30;;;;;;;;;;5001057;28;20050;-70
2022/09/21 14:02:41;;;;;;;3.20;0.50;;;;;;;;;;5000804;28;20041;-70
2022/09/21 14:05:54;;;;;;;0.88;0.40;;;;;;;;;;5001228;28;20042;-70
2022/09/21 14:08:24;;;;;;;2.58;0.70;;;;;;;;;;4969050;28;20049;-70
2022/09/21 14:11:00;;;;;;;3.17;0.60;;;;;;;;;;5001344;28;20045;-70
2022/09/21 14:13:33;;;;;;;1.13;0.50;;;;;;;;;;4999867;28;20054;-71
2022/09/21 14:16:33;;;;;;;1.85;0.82;;;;;;;;;;4982972;28;20045;-70
2022/09/21 14:19:00;;;;;;;1.23;0.50;;;;;;;;;;5000933;28;20057;-70
2022/09/21 14:21:26;;;;;;;1.88;0.55;;;;;;;;;;5000463;28;20092;-72
2022/09/21 14:24:21;;;;;;;1.00;0.60;;;;;;;;;;5001177;28;20054;-70
2022/09/21 14:26:59;;;;;;;1.35;0.60;;;;;;;;;;4999823;28;20116;-70
2022/09/21 14:29:31;;;;;;;0.80;0.50;;;;;;;;;;5000413;28;20188;-70
2022/09/21 14:31:58;;;;;;;;;;;;;;;;;;4968744;28;20054;-69
2022/09/21 14:34:30;;;;;;;1.90;0.40;;;;;;;;;;4997947;28;19925;-69
2022/09/21 14:37:00;;;;;;;0.95;0.50;;;;;;;;;;4981508;28;20056;-69
2022/09/21 14:39:36;;;;;;;0.95;0.50;;;;;;;;;;4998066;28;20064;-70
2022/09/21 14:42:11;;;;;;;2.50;0.52;;;;;;;;;;4999508;28;20073;-70
2022/09/21 14:44:38;;;;;;;0.73;0.40;;;;;;;;;;4999923;28;20056;-70
2022/09/21 14:47:19;;;;;;;1.48;0.77;;;;;;;;;;4998957;28;20073;-70
2022/09/21 14:50:13;;;;;;;0.93;0.60;;;;;;;;;;4998112;28;20042;-69
2022/09/21 14:52:54;;;;;;;1.00;0.60;;;;;;;;;;5000148;28;20056;-71
2022/09/21 14:55:49;;;;;;;0.73;0.65;;;;;;;;;;5000387;28;20673;-70
2022/09/21 14:58:30;;;;;;;0.80;0.75;;;;;;;;;;4974174;28;20054;-71
2022/09/21 15:01:19;;;;;;;1.15;0.60;;;;;;;;;;5001502;28;20073;-71
2022/09/21 15:03:52;;;;;;;0.70;0.70;;;;;;;;;;5000267;28;20061;-70
2022/09/21 15:12:37;;;;;;;0.77;0.70;;;;;;;;;;5000393;28;20045;-71
2022/09/21 15:15:41;;;;;;;3.15;0.63;;;;;;;;;;4999903;28;20060;-70
2022/09/21 15:18:18;;;;;;;2.47;0.90;;;;;;;;;;4906205;29;20385;-70
2022/09/21 15:21:00;;;;;;;0.95;0.50;;;;;;;;;;4985803;28;20042;-71
2022/09/21 15:23:31;;;;;;;1.85;0.82;;;;;;;;;;4997030;28;20066;-70
2022/09/21 15:26:08;;;;;;;1.27;0.80;;;;;;;;;;4998249;28;20065;-70
2022/09/21 15:28:42;;;;;;;3.90;1.10;;;;;;;;;;4998175;28;20045;-70
2022/09/21 15:31:08;;;;;;;6.07;1.10;;;;;;;;;;4997356;28;20153;-70